createdAt,value
2022-10-23T00:01:35.267Z,22.60
2022-10-23T00:04:06.735Z,20.80
2022-10-23T00:06:35.942Z,22.80
2022-10-23T00:09:07.388Z,22.60
2022-10-23T00:11:36.411Z,21.60
2022-10-23T00:14:07.169Z,22.60
2022-10-23T00:19:03.790Z,21.00
2022-10-23T00:21:31.580Z,21.30
2022-10-23T00:23:59.464Z,21.00
2022-10-23T00:26:27.849Z,20.80
2022-10-23T00:28:56.516Z,20.60
2022-10-23T00:31:25.174Z,20.00
2022-10-23T00:33:53.630Z,21.20
2022-10-23T00:36:22.355Z,22.70
2022-10-23T00:38:51.104Z,21.00
2022-10-23T00:41:24.833Z,21.00
2022-10-23T00:44:04.172Z,20.50
2022-10-23T00:46:32.929Z,21.30
2022-10-23T00:49:01.351Z,20.90
2022-10-23T00:51:34.705Z,20.40
2022-10-23T00:54:25.017Z,20.00
2022-10-23T00:56:54.665Z,18.80
2022-10-23T00:59:22.939Z,20.60
2022-10-23T01:01:51.414Z,19.40
2022-10-23T01:04:19.869Z,20.30
2022-10-23T01:07:20.182Z,18.80
2022-10-23T01:10:15.193Z,21.10
2022-10-23T01:13:02.850Z,21.40
2022-10-23T01:16:05.882Z,20.20
2022-10-23T01:18:46.980Z,18.40
2022-10-23T01:24:28.611Z,18.10
2022-10-23T01:27:15.294Z,18.50
2022-10-23T01:30:01.573Z,17.90
2022-10-23T01:33:04.301Z,18.80
2022-10-23T01:35:49.046Z,18.20
2022-10-23T01:38:29.033Z,18.60
2022-10-23T01:41:06.679Z,22.30
2022-10-23T01:43:45.330Z,22.90
2022-10-23T01:46:17.037Z,22.10
2022-10-23T01:48:51.374Z,22.30
2022-10-23T01:51:22.062Z,22.60
2022-10-23T01:56:25.954Z,21.60
2022-10-23T01:58:56.641Z,24.00
2022-10-23T02:01:29.528Z,22.90
2022-10-23T02:06:32.819Z,24.90
2022-10-23T02:09:00.871Z,24.30
2022-10-23T02:11:31.429Z,24.90
2022-10-23T02:14:11.926Z,24.50
2022-10-23T02:16:57.576Z,24.40
2022-10-23T02:19:33.280Z,23.50
2022-10-23T02:22:35.071Z,23.90
2022-10-23T02:25:13.221Z,23.80
2022-10-23T02:27:48.263Z,25.40
2022-10-23T02:30:19.244Z,24.20
2022-10-23T02:32:54.831Z,26.40
2022-10-23T02:35:24.822Z,26.10
2022-10-23T02:38:00.974Z,24.90
2022-10-23T02:40:43.187Z,25.90
2022-10-23T02:45:59.128Z,25.60
2022-10-23T02:48:39.257Z,25.00
2022-10-23T02:51:50.077Z,27.00
2022-10-23T02:54:29.907Z,25.10
2022-10-23T02:57:06.162Z,25.70
2022-10-23T02:59:43.842Z,25.10
2022-10-23T03:02:41.306Z,26.20
2022-10-23T03:05:14.360Z,25.60
2022-10-23T03:07:44.152Z,27.50
2022-10-23T03:10:14.174Z,26.10
2022-10-23T03:12:42.661Z,24.90
2022-10-23T03:15:12.536Z,25.20
2022-10-23T03:17:41.110Z,25.50
2022-10-23T03:20:10.451Z,26.00
2022-10-23T03:22:38.736Z,25.80
2022-10-23T03:25:08.277Z,24.90
2022-10-23T03:27:36.893Z,25.60
2022-10-23T03:30:07.319Z,25.90
2022-10-23T03:32:35.692Z,25.80
2022-10-23T03:35:04.255Z,27.90
2022-10-23T03:37:32.820Z,26.20
2022-10-23T03:40:07.689Z,25.50
2022-10-23T03:42:37.204Z,25.60
2022-10-23T03:45:07.805Z,24.60
2022-10-23T03:47:43.059Z,23.90
2022-10-23T03:50:13.533Z,23.30
2022-10-23T03:52:41.466Z,24.10
2022-10-23T03:55:10.016Z,24.20
2022-10-23T03:57:38.291Z,25.20
2022-10-23T04:00:07.203Z,23.90
2022-10-23T04:02:45.317Z,23.30
2022-10-23T04:05:13.813Z,24.80
2022-10-23T04:07:42.108Z,24.60
2022-10-23T04:10:11.341Z,25.00
2022-10-23T04:12:40.897Z,24.70
2022-10-23T04:15:09.201Z,25.60
2022-10-23T04:17:37.184Z,23.40
2022-10-23T04:20:05.819Z,27.20
2022-10-23T04:22:33.605Z,25.40
2022-10-23T04:25:01.533Z,25.40
2022-10-23T04:27:30.922Z,26.50
2022-10-23T04:29:59.224Z,26.00
2022-10-23T04:32:27.577Z,25.00
2022-10-23T04:34:55.282Z,25.20
2022-10-23T04:37:23.957Z,25.30
2022-10-23T04:39:51.781Z,24.50
2022-10-23T04:42:19.777Z,25.30
2022-10-23T04:44:48.382Z,26.00
2022-10-23T04:47:16.201Z,24.60
2022-10-23T04:49:56.259Z,26.50
2022-10-23T04:52:57.765Z,25.90
2022-10-23T04:55:25.525Z,27.10
2022-10-23T04:58:27.615Z,25.80
2022-10-23T05:00:58.430Z,26.50
2022-10-23T05:03:27.629Z,26.10
2022-10-23T05:05:56.314Z,25.60
2022-10-23T05:08:53.242Z,24.80
2022-10-23T05:11:36.607Z,24.30
2022-10-23T05:14:07.867Z,22.60
2022-10-23T05:17:00.033Z,22.20
2022-10-23T05:19:34.785Z,22.50
2022-10-23T05:22:02.590Z,22.50
2022-10-23T05:24:49.677Z,25.40
2022-10-23T05:27:21.151Z,23.70
2022-10-23T05:29:49.004Z,23.50
2022-10-23T05:34:54.524Z,23.10
2022-10-23T05:37:25.819Z,24.30
2022-10-23T05:40:00.742Z,22.70
2022-10-23T05:42:28.739Z,21.80
2022-10-23T05:44:58.075Z,23.90
2022-10-23T05:47:46.884Z,23.00
2022-10-23T05:50:36.930Z,22.40
2022-10-23T05:53:42.452Z,23.50
2022-10-23T05:56:24.763Z,24.10
2022-10-23T05:59:03.303Z,23.70
2022-10-23T06:01:51.443Z,24.80
2022-10-23T06:04:42.627Z,24.90
2022-10-23T06:07:13.293Z,24.90
2022-10-23T06:09:44.077Z,25.30
2022-10-23T06:12:11.881Z,23.70
2022-10-23T06:15:08.571Z,23.80
2022-10-23T06:18:01.214Z,23.00
2022-10-23T06:20:36.269Z,26.00
2022-10-23T06:23:09.440Z,22.50
2022-10-23T06:26:08.885Z,20.80
2022-10-23T06:28:49.674Z,22.60
2022-10-23T06:31:26.566Z,24.30
2022-10-23T06:33:56.092Z,23.00
2022-10-23T06:36:24.208Z,22.60
2022-10-23T06:38:53.814Z,23.10
2022-10-23T06:41:23.182Z,22.60
2022-10-23T06:43:55.138Z,21.60
2022-10-23T06:46:30.193Z,21.30
2022-10-23T06:49:27.715Z,21.20
2022-10-23T06:51:56.176Z,20.70
2022-10-23T06:54:24.154Z,20.70
2022-10-23T06:56:55.574Z,19.90
2022-10-23T06:59:30.705Z,19.40
2022-10-23T07:02:24.235Z,24.10
2022-10-23T07:04:52.078Z,20.90
2022-10-23T07:07:20.362Z,21.30
2022-10-23T07:09:49.592Z,30.80
2022-10-23T07:12:40.909Z,22.30
2022-10-23T07:15:27.872Z,18.20
2022-10-23T07:17:56.354Z,18.00
2022-10-23T07:20:24.605Z,17.10
2022-10-23T07:22:54.525Z,19.30
2022-10-23T07:25:29.155Z,16.20
2022-10-23T07:27:57.581Z,14.80
2022-10-23T07:30:26.534Z,13.40
2022-10-23T07:32:55.753Z,13.10
2022-10-23T07:35:52.007Z,13.50
2022-10-23T07:38:25.689Z,14.30
2022-10-23T07:40:58.204Z,14.10
2022-10-23T07:43:26.595Z,13.30
2022-10-23T07:45:55.221Z,14.90
2022-10-23T07:48:31.190Z,13.80
2022-10-23T07:51:08.380Z,14.00
2022-10-23T07:53:39.312Z,16.90
2022-10-23T07:56:26.269Z,16.40
2022-10-23T07:59:14.570Z,16.30
2022-10-23T08:01:45.873Z,16.80
2022-10-23T08:04:14.383Z,15.20
2022-10-23T08:06:56.411Z,16.90
2022-10-23T08:09:25.209Z,17.30
2022-10-23T08:11:52.988Z,17.50
2022-10-23T08:14:21.023Z,16.70
2022-10-23T08:16:49.313Z,18.10
2022-10-23T08:19:19.661Z,18.20
2022-10-23T08:21:48.485Z,19.40
2022-10-23T08:24:17.969Z,23.90
2022-10-23T08:26:46.380Z,18.20
2022-10-23T08:29:14.632Z,18.50
2022-10-23T08:31:42.799Z,18.40
2022-10-23T08:34:25.853Z,17.50
2022-10-23T08:36:54.286Z,17.10
2022-10-23T08:39:22.086Z,18.70
2022-10-23T08:42:03.095Z,18.30
2022-10-23T08:44:36.476Z,17.00
2022-10-23T08:47:42.786Z,16.40
2022-10-23T08:50:47.456Z,17.00
2022-10-23T08:53:41.189Z,17.40
2022-10-23T08:56:37.903Z,17.60
2022-10-23T08:59:28.240Z,17.20
2022-10-23T09:02:05.451Z,16.20
2022-10-23T09:04:34.503Z,17.10
2022-10-23T09:07:32.319Z,17.30
2022-10-23T09:10:06.187Z,17.20
2022-10-23T09:12:34.115Z,16.50
2022-10-23T09:15:17.353Z,18.90
2022-10-23T09:17:46.171Z,17.40
2022-10-23T09:20:22.394Z,16.50
2022-10-23T09:22:54.942Z,15.60
2022-10-23T09:25:26.993Z,15.40
2022-10-23T09:28:00.194Z,15.30
2022-10-23T09:30:39.176Z,19.80
2022-10-23T09:33:20.141Z,18.80
2022-10-23T09:35:59.994Z,17.10
2022-10-23T09:38:27.763Z,17.40
2022-10-23T09:40:56.238Z,20.80
2022-10-23T09:43:27.422Z,18.40
2022-10-23T09:46:03.070Z,16.20
2022-10-23T09:48:31.243Z,16.30
2022-10-23T09:51:02.190Z,16.40
2022-10-23T09:53:35.885Z,15.60
2022-10-23T09:56:24.820Z,15.90
2022-10-23T09:58:59.298Z,14.80
2022-10-23T10:01:33.181Z,16.40
2022-10-23T10:04:17.565Z,17.50
2022-10-23T10:06:46.189Z,16.10
2022-10-23T10:09:16.542Z,15.60
2022-10-23T10:11:49.993Z,14.70
2022-10-23T10:14:39.388Z,15.70
2022-10-23T10:17:19.921Z,16.00
2022-10-23T10:19:50.675Z,16.70
2022-10-23T10:22:42.530Z,14.70
2022-10-23T10:25:21.446Z,15.90
2022-10-23T10:28:05.302Z,15.60
2022-10-23T10:30:56.510Z,14.80
2022-10-23T10:33:47.720Z,14.10
2022-10-23T10:36:30.671Z,14.80
2022-10-23T10:39:03.948Z,16.90
2022-10-23T10:41:56.076Z,18.60
2022-10-23T10:44:53.402Z,15.80
2022-10-23T10:47:29.309Z,14.70
2022-10-23T10:50:23.061Z,15.90
2022-10-23T10:53:24.272Z,15.00
2022-10-23T10:55:55.576Z,14.70
2022-10-23T10:58:32.022Z,15.00
2022-10-23T11:01:03.437Z,15.90
2022-10-23T11:03:40.286Z,15.30
2022-10-23T11:06:16.242Z,15.90
2022-10-23T11:08:56.537Z,16.10
2022-10-23T11:11:45.942Z,16.10
2022-10-23T11:14:19.537Z,15.40
2022-10-23T11:16:53.207Z,16.20
2022-10-23T11:19:43.297Z,13.90
2022-10-23T11:22:24.300Z,13.00
2022-10-23T11:25:32.195Z,14.00
2022-10-23T11:28:23.690Z,15.30
2022-10-23T11:31:22.527Z,19.10
2022-10-23T11:34:24.335Z,24.90
2022-10-23T11:36:58.758Z,21.90
2022-10-23T11:39:29.682Z,19.40
2022-10-23T11:42:08.834Z,15.70
2022-10-23T11:44:36.538Z,14.40
2022-10-23T11:47:39.649Z,15.00
2022-10-23T11:50:07.935Z,18.90
2022-10-23T11:52:45.447Z,16.00
2022-10-23T11:55:24.319Z,17.70
2022-10-23T11:58:34.912Z,15.40
2022-10-23T12:01:18.327Z,13.70
2022-10-23T12:03:54.462Z,12.80
2022-10-23T12:06:28.485Z,12.50
2022-10-23T12:09:06.775Z,11.70
2022-10-23T12:12:02.757Z,10.50
2022-10-23T12:14:43.471Z,11.70
2022-10-23T12:17:41.710Z,10.20
2022-10-23T12:20:22.807Z,11.00
2022-10-23T12:23:20.932Z,10.40
2022-10-23T12:26:16.404Z,10.40
2022-10-23T12:29:12.093Z,11.20
2022-10-23T12:31:59.139Z,12.00
2022-10-23T12:35:08.359Z,12.40
2022-10-23T12:38:00.656Z,9.90
2022-10-23T12:40:30.220Z,9.70
2022-10-23T12:43:00.846Z,9.50
2022-10-23T12:45:34.273Z,10.30
2022-10-23T12:48:02.057Z,11.00
2022-10-23T12:50:32.161Z,10.30
2022-10-23T12:53:07.690Z,9.80
2022-10-23T12:55:54.826Z,9.50
2022-10-23T12:58:26.249Z,9.80
2022-10-23T13:01:00.313Z,9.60
2022-10-23T13:03:30.600Z,9.60
2022-10-23T13:06:00.383Z,10.00
2022-10-23T13:08:41.122Z,9.50
2022-10-23T13:11:30.767Z,10.60
2022-10-23T13:14:01.712Z,11.40
2022-10-23T13:16:29.591Z,13.80
2022-10-23T13:18:57.337Z,11.50
2022-10-23T13:21:28.648Z,11.40
2022-10-23T13:23:56.786Z,11.60
2022-10-23T13:26:28.480Z,12.20
2022-10-23T13:28:57.557Z,10.00
2022-10-23T13:31:32.243Z,9.20
2022-10-23T13:34:00.150Z,9.10
2022-10-23T13:36:29.937Z,9.40
2022-10-23T13:39:00.104Z,8.40
2022-10-23T13:41:34.150Z,8.90
2022-10-23T13:44:01.941Z,8.00
2022-10-23T13:46:30.005Z,9.30
2022-10-23T13:48:58.033Z,8.70
2022-10-23T13:51:28.852Z,9.10
2022-10-23T13:53:57.630Z,10.00
2022-10-23T13:56:27.471Z,9.50
2022-10-23T13:58:55.273Z,9.20
2022-10-23T14:01:26.305Z,9.70
2022-10-23T14:03:55.866Z,9.40
2022-10-23T14:06:23.989Z,8.90
2022-10-23T14:08:52.338Z,9.00
2022-10-23T14:11:20.765Z,9.10
2022-10-23T14:13:49.553Z,8.60
2022-10-23T14:16:19.655Z,9.30
2022-10-23T14:18:48.134Z,9.30
2022-10-23T14:21:19.839Z,10.50
2022-10-23T14:23:48.657Z,11.10
2022-10-23T14:26:21.836Z,10.30
2022-10-23T14:28:53.389Z,9.40
2022-10-23T14:31:22.284Z,9.60
2022-10-23T14:33:56.229Z,9.70
2022-10-23T14:36:28.254Z,9.10
2022-10-23T14:39:02.253Z,10.50
2022-10-23T14:41:29.962Z,9.30
2022-10-23T14:43:57.757Z,10.60
2022-10-23T14:46:25.639Z,9.70
2022-10-23T14:48:57.521Z,9.00
2022-10-23T14:51:32.572Z,9.60
2022-10-23T14:54:06.246Z,11.10
2022-10-23T14:56:37.791Z,9.70
2022-10-23T14:59:05.685Z,11.40
2022-10-23T15:01:43.685Z,12.50
2022-10-23T15:04:15.198Z,11.40
2022-10-23T15:06:44.298Z,13.60
2022-10-23T15:09:12.196Z,15.50
2022-10-23T15:11:40.003Z,15.20
2022-10-23T15:14:08.266Z,15.70
2022-10-23T15:16:41.329Z,15.10
2022-10-23T15:19:18.091Z,21.30
2022-10-23T15:21:48.104Z,32.00
2022-10-23T15:24:17.320Z,25.70
2022-10-23T15:26:45.282Z,22.70
2022-10-23T15:29:14.791Z,23.70
2022-10-23T15:31:49.183Z,21.20
2022-10-23T15:34:20.837Z,21.40
2022-10-23T15:36:50.071Z,18.90
2022-10-23T15:39:26.024Z,19.30
2022-10-23T15:41:55.949Z,17.10
2022-10-23T15:44:26.709Z,18.50
2022-10-23T15:46:57.068Z,16.70
2022-10-23T15:49:26.548Z,17.40
2022-10-23T15:51:54.441Z,16.10
2022-10-23T15:54:22.874Z,16.60
2022-10-23T15:56:53.134Z,16.50
2022-10-23T15:59:23.691Z,18.60
2022-10-23T16:01:52.105Z,14.60
2022-10-23T16:04:20.123Z,14.30
2022-10-23T16:06:48.614Z,14.80
2022-10-23T16:09:16.517Z,13.90
2022-10-23T16:11:44.535Z,14.00
2022-10-23T16:14:14.570Z,14.80
2022-10-23T16:16:42.829Z,14.60
2022-10-23T16:19:11.536Z,14.50
2022-10-23T16:21:39.433Z,16.20
2022-10-23T16:24:08.226Z,15.20
2022-10-23T16:26:36.841Z,14.90
2022-10-23T16:29:07.430Z,14.40
2022-10-23T16:31:35.653Z,14.90
2022-10-23T16:34:05.272Z,15.30
2022-10-23T16:36:34.482Z,19.60
2022-10-23T16:39:14.348Z,23.70
2022-10-23T16:42:20.469Z,25.10
2022-10-23T16:45:02.351Z,25.10
2022-10-23T16:47:33.799Z,27.20
2022-10-23T16:50:01.601Z,26.90
2022-10-23T16:52:29.960Z,24.70
2022-10-23T16:54:57.827Z,31.90
2022-10-23T16:57:27.885Z,32.20
2022-10-23T16:59:55.680Z,33.70
2022-10-23T17:02:23.604Z,38.10
2022-10-23T17:04:51.654Z,40.50
2022-10-23T17:07:19.601Z,41.80
2022-10-23T17:09:47.486Z,40.60
2022-10-23T17:12:16.753Z,40.60
2022-10-23T17:14:44.643Z,33.40
2022-10-23T17:17:12.432Z,31.60
2022-10-23T17:19:45.981Z,27.00
2022-10-23T17:22:16.426Z,21.10
2022-10-23T17:24:46.434Z,23.90
2022-10-23T17:27:16.956Z,29.30
2022-10-23T17:29:44.802Z,27.60
2022-10-23T17:32:12.758Z,34.30
2022-10-23T17:34:40.575Z,43.10
2022-10-23T17:37:10.131Z,47.50
2022-10-23T17:39:37.954Z,47.90
2022-10-23T17:42:16.334Z,45.90
2022-10-23T17:44:50.690Z,42.60
2022-10-23T17:47:18.507Z,41.10
2022-10-23T17:49:46.347Z,39.70
2022-10-23T17:52:15.027Z,39.40
2022-10-23T17:54:42.874Z,37.90
2022-10-23T17:57:10.791Z,39.40
2022-10-23T17:59:39.159Z,37.70
2022-10-23T18:02:07.197Z,37.90
2022-10-23T18:04:35.103Z,41.90
2022-10-23T18:07:02.758Z,40.90
2022-10-23T18:09:30.631Z,40.30
2022-10-23T18:11:58.446Z,41.10
2022-10-23T18:14:29.424Z,41.90
2022-10-23T18:16:57.722Z,40.60
2022-10-23T18:19:25.463Z,46.40
2022-10-23T18:21:53.330Z,49.90
2022-10-23T18:24:21.285Z,43.10
2022-10-23T18:26:49.261Z,35.70
2022-10-23T18:29:17.666Z,31.60
2022-10-23T18:31:48.099Z,27.70
2022-10-23T18:34:16.076Z,26.90
2022-10-23T18:36:44.102Z,23.70
2022-10-23T18:39:14.999Z,26.70
2022-10-23T18:41:44.954Z,26.10
2022-10-23T18:44:17.351Z,27.80
2022-10-23T18:46:46.407Z,30.80
2022-10-23T18:49:14.890Z,36.50
2022-10-23T18:51:42.997Z,38.20
2022-10-23T18:54:14.116Z,39.00
2022-10-23T18:56:42.998Z,37.20
2022-10-23T18:59:17.274Z,35.00
2022-10-23T19:01:45.122Z,37.10
2022-10-23T19:04:15.798Z,37.00
2022-10-23T19:09:13.995Z,42.80
2022-10-23T19:11:42.833Z,44.90
2022-10-23T19:14:11.305Z,43.80
2022-10-23T19:17:08.649Z,43.60
2022-10-23T19:19:48.632Z,39.60
2022-10-23T19:22:16.994Z,34.20
2022-10-23T19:24:57.947Z,33.50
2022-10-23T19:27:27.001Z,34.60
2022-10-23T19:29:55.931Z,36.30
2022-10-23T19:32:23.839Z,37.00
2022-10-23T19:34:51.747Z,31.10
2022-10-23T19:37:20.130Z,29.10
2022-10-23T19:39:47.856Z,26.50
2022-10-23T19:42:15.748Z,25.80
2022-10-23T19:44:43.594Z,23.80
2022-10-23T19:47:11.483Z,23.60
2022-10-23T19:49:39.437Z,24.10
2022-10-23T19:52:07.378Z,24.90
2022-10-23T19:54:35.295Z,24.50
2022-10-23T19:57:03.334Z,25.10
2022-10-23T19:59:31.066Z,26.30
2022-10-23T20:01:59.226Z,24.40
2022-10-23T20:04:28.833Z,23.60
2022-10-23T20:06:56.686Z,23.80
2022-10-23T20:09:24.469Z,23.90
2022-10-23T20:11:52.336Z,25.20
2022-10-23T20:14:20.120Z,25.50
2022-10-23T20:16:50.169Z,25.40
2022-10-23T20:19:21.264Z,24.90
2022-10-23T20:21:49.290Z,26.40
2022-10-23T20:24:19.327Z,27.20
2022-10-23T20:26:51.042Z,28.20
2022-10-23T20:29:19.021Z,26.90
2022-10-23T20:31:47.921Z,28.60
2022-10-23T20:34:16.032Z,27.10
2022-10-23T20:36:46.944Z,26.60
2022-10-23T20:39:18.990Z,25.80
2022-10-23T20:41:47.624Z,25.30
2022-10-23T20:46:49.873Z,22.70
2022-10-23T20:49:18.134Z,22.90
2022-10-23T20:51:54.113Z,22.10
2022-10-23T20:54:25.429Z,22.20
2022-10-23T20:56:53.198Z,22.00
2022-10-23T20:59:21.085Z,21.40
2022-10-23T21:01:51.306Z,22.20
2022-10-23T21:04:22.508Z,20.60
2022-10-23T21:09:40.063Z,19.90
2022-10-23T21:12:08.539Z,20.50
2022-10-23T21:14:36.565Z,23.00
2022-10-23T21:17:05.179Z,20.50
2022-10-23T21:19:33.251Z,22.40
2022-10-23T21:22:01.211Z,20.80
2022-10-23T21:24:29.028Z,21.70
2022-10-23T21:26:56.934Z,21.10
2022-10-23T21:29:24.814Z,21.80
2022-10-23T21:31:59.195Z,22.80
2022-10-23T21:34:27.972Z,23.20
2022-10-23T21:37:13.800Z,22.50
2022-10-23T21:39:43.677Z,21.30
2022-10-23T21:42:14.904Z,21.10
2022-10-23T21:44:42.978Z,20.70
2022-10-23T21:47:10.908Z,20.50
2022-10-23T21:49:38.667Z,19.60
2022-10-23T21:52:06.591Z,20.10
2022-10-23T21:54:34.406Z,20.40
2022-10-23T21:57:04.137Z,20.00
2022-10-23T21:59:35.490Z,19.40
2022-10-23T22:02:04.357Z,18.50
2022-10-23T22:04:32.240Z,17.40
2022-10-23T22:07:00.339Z,17.90
2022-10-23T22:09:28.976Z,17.60
2022-10-23T22:11:57.333Z,17.00
2022-10-23T22:14:27.314Z,17.40
2022-10-23T22:16:55.945Z,16.30
2022-10-23T22:19:23.782Z,17.20
2022-10-23T22:21:51.704Z,16.50
2022-10-23T22:24:20.125Z,15.50
2022-10-23T22:26:51.465Z,15.70
2022-10-23T22:29:22.427Z,15.50
2022-10-23T22:31:51.898Z,15.40
2022-10-23T22:34:48.424Z,14.30
2022-10-23T22:37:14.828Z,15.40
2022-10-23T22:39:42.787Z,15.80
2022-10-23T22:42:11.057Z,14.80
2022-10-23T22:44:38.774Z,14.40
2022-10-23T22:47:06.882Z,14.60
2022-10-23T22:49:36.039Z,13.60
2022-10-23T22:52:04.758Z,13.60
2022-10-23T22:54:32.646Z,13.20
2022-10-23T22:57:00.810Z,12.60
2022-10-23T22:59:28.611Z,12.60
2022-10-23T23:01:56.365Z,12.50
2022-10-23T23:04:39.854Z,12.20
2022-10-23T23:07:11.983Z,11.90
2022-10-23T23:09:42.536Z,11.40
2022-10-23T23:12:13.572Z,11.10
2022-10-23T23:14:42.435Z,11.50
2022-10-23T23:17:10.770Z,10.70
2022-10-23T23:19:38.603Z,10.70
2022-10-23T23:22:06.530Z,11.30
2022-10-23T23:24:34.441Z,10.60
2022-10-23T23:27:02.410Z,10.60
2022-10-23T23:29:30.163Z,10.00
2022-10-23T23:31:58.114Z,9.70
2022-10-23T23:34:26.463Z,10.00
2022-10-23T23:36:54.264Z,9.90
2022-10-23T23:39:22.024Z,9.30
2022-10-23T23:41:49.866Z,9.50
2022-10-23T23:44:17.586Z,9.40
2022-10-23T23:46:45.315Z,8.80
2022-10-23T23:49:13.105Z,8.90
2022-10-23T23:51:41.094Z,9.40
2022-10-23T23:54:08.838Z,8.50
2022-10-23T23:56:36.673Z,9.40
2022-10-23T23:59:04.686Z,7.90
